
Distance (Route):
Temperature : -10.9°C
Humidity : 41.1%
Pressure : 0hPa| Receiver | Frames | First received | Last received |
|---|---|---|---|
| LZ4TU-5 | 128 | 2026-09-04 05:24:44 | 2026-09-04 06:57:46 |
| Receiver | Date | Latitude | Longitude | Direction | Speed | Altitude | Climb | Temperature | Humidity | Pressure | Voltage | Killtimer | Uptime | BKT | XDATA |
|---|---|---|---|---|---|---|---|---|---|---|---|---|---|---|---|
| LZ4TU-5 | 2026-09-04 06:57:46 | 42.62548 | 21.97040 | 181° | 47km/h | 5718m | -17.9m/s | -10.9°C | 41.1% | 0hPa | 0V | 00:00:00 | 00:00:00 | 00:00:00 | |
| LZ4TU-5 | 2026-09-04 06:57:41 | 42.62608 | 21.97039 | 180° | 51km/h | 5803m | -17.7m/s | -11.5°C | 38.5% | 0hPa | 0V | 00:00:00 | 00:00:00 | 00:00:00 | |
| LZ4TU-5 | 2026-09-04 06:52:17 | 42.72711 | 21.98431 | 176° | 128km/h | 12583m | -26.3m/s | -57.2°C | 0.6% | 0hPa | 0V | 00:00:00 | 00:00:00 | 00:00:00 | |
| LZ4TU-5 | 2026-09-04 06:52:11 | 42.72902 | 21.98408 | 175° | 126km/h | 12750m | -26.8m/s | -56.6°C | 0.0% | 0hPa | 0V | 00:00:00 | 00:00:00 | 00:00:00 | |
| LZ4TU-5 | 2026-09-04 06:52:06 | 42.73054 | 21.98390 | 179° | 111km/h | 12891m | -27.6m/s | -55.3°C | 0.0% | 0hPa | 0V | 00:00:00 | 00:00:00 | 00:00:00 | |
| LZ4TU-5 | 2026-09-04 06:52:02 | 42.73170 | 21.98380 | 178° | 99km/h | 12986m | -27.6m/s | -55.6°C | 0.0% | 0hPa | 0V | 00:00:00 | 00:00:00 | 00:00:00 | |
| LZ4TU-5 | 2026-09-04 06:51:56 | 42.73308 | 21.98360 | 171° | 88km/h | 13151m | -27.9m/s | -54.8°C | 0.0% | 0hPa | 0V | 00:00:00 | 00:00:00 | 00:00:00 | |
| LZ4TU-5 | 2026-09-04 06:50:37 | 42.74128 | 21.97652 | 135° | 29km/h | 15544m | -33.2m/s | -54.8°C | 0.0% | 0hPa | 0V | 00:00:00 | 00:00:00 | 00:00:00 | |
| LZ4TU-5 | 2026-09-04 06:50:33 | 42.74145 | 21.97630 | 133° | 18km/h | 15676m | -34.2m/s | -54.6°C | 0% | 0hPa | 0V | 00:00:00 | 00:00:00 | 00:00:00 | |
| LZ4TU-5 | 2026-09-04 06:48:57 | 42.74343 | 21.96969 | 96° | 20km/h | 19277m | -44.5m/s | -57.0°C | 0.0% | 0hPa | 0V | 00:00:00 | 00:00:00 | 00:00:00 | |
| LZ4TU-5 | 2026-09-04 06:48:52 | 42.74347 | 21.96942 | 112° | 15km/h | 19489m | -45.1m/s | -55.8°C | 0.0% | 0hPa | 0V | 00:00:00 | 00:00:00 | 00:00:00 | |
| LZ4TU-5 | 2026-09-04 06:47:30 | 42.74461 | 21.96863 | 226° | 5km/h | 23726m | -61.2m/s | -50.3°C | 0.0% | 0hPa | 0V | 00:00:00 | 00:00:00 | 00:00:00 | |
| LZ4TU-5 | 2026-09-04 06:47:26 | 42.74463 | 21.96873 | 284° | 7km/h | 23941m | -63.1m/s | -49.9°C | 0.0% | 0hPa | 0V | 00:00:00 | 00:00:00 | 00:00:00 | |
| LZ4TU-5 | 2026-09-04 06:47:18 | 42.74464 | 21.96888 | 248° | 7km/h | 24425m | -65.6m/s | -49.6°C | 0.0% | 0hPa | 0V | 00:00:00 | 00:00:00 | 00:00:00 | |
| LZ4TU-5 | 2026-09-04 06:47:14 | 42.74464 | 21.96895 | 278° | 7km/h | 24675m | -67.2m/s | -49.0°C | 0.0% | 0hPa | 0V | 00:00:00 | 00:00:00 | 00:00:00 | |
| LZ4TU-5 | 2026-09-04 06:47:07 | 42.74468 | 21.96908 | 316° | 13km/h | 25120m | -70.0m/s | -47.2°C | 0.0% | 0hPa | 0V | 00:00:00 | 00:00:00 | 00:00:00 | |
| LZ4TU-5 | 2026-09-04 06:47:01 | 42.74455 | 21.96919 | 301° | 7km/h | 25521m | -71.7m/s | -47.9°C | 0.0% | 0hPa | 0V | 00:00:00 | 00:00:00 | 00:00:00 | |
| LZ4TU-5 | 2026-09-04 06:45:32 | 42.74471 | 21.97001 | 96° | 20km/h | 31336m | 7.7m/s | -40.9°C | 0.0% | 0hPa | 0V | 00:00:00 | 00:00:00 | 00:00:00 | |
| LZ4TU-5 | 2026-09-04 06:45:27 | 42.74461 | 21.96979 | 244° | 7km/h | 31304m | 8.1m/s | -40.9°C | 0.0% | 0hPa | 0V | 00:00:00 | 00:00:00 | 00:00:00 | |
| LZ4TU-5 | 2026-09-04 06:44:07 | 42.74404 | 21.97064 | 290° | 27km/h | 30758m | 8.9m/s | -40.6°C | 0.0% | 0hPa | 0V | 00:00:00 | 00:00:00 | 00:00:00 | |
| LZ4TU-5 | 2026-09-04 06:44:03 | 42.74399 | 21.97106 | 280° | 20km/h | 30732m | 5.8m/s | -40.7°C | 0% | 0hPa | 0V | 00:00:00 | 00:00:00 | 00:00:00 | |
| LZ4TU-5 | 2026-09-04 06:42:44 | 42.74327 | 21.97256 | 309° | 11km/h | 30180m | 6.3m/s | -41.0°C | 0.0% | 0hPa | 0V | 00:00:00 | 00:00:00 | 00:00:00 | |
| LZ4TU-5 | 2026-09-04 06:42:40 | 42.74322 | 21.97249 | 97° | 13km/h | 30152m | 5.5m/s | -41.2°C | 0.0% | 0hPa | 0V | 00:00:00 | 00:00:00 | 00:00:00 | |
| LZ4TU-5 | 2026-09-04 06:41:15 | 42.73954 | 21.97391 | 9° | 49km/h | 29608m | 4.1m/s | -43.8°C | 0.0% | 0hPa | 0V | 00:00:00 | 00:00:00 | 00:00:00 | |
| LZ4TU-5 | 2026-09-04 06:41:10 | 42.73940 | 21.97393 | 229° | 26km/h | 29574m | 6.4m/s | -43.9°C | 0.0% | 0hPa | 0V | 00:00:00 | 00:00:00 | 00:00:00 | |
| LZ4TU-5 | 2026-09-04 06:39:53 | 42.73596 | 21.97817 | 4° | 44km/h | 29087m | 7.3m/s | -44.3°C | 0.0% | 0hPa | 0V | 00:00:00 | 00:00:00 | 00:00:00 | |
| LZ4TU-5 | 2026-09-04 06:39:49 | 42.73580 | 21.97811 | 263° | 20km/h | 29063m | 7.0m/s | -44.4°C | 0% | 0hPa | 0V | 00:00:00 | 00:00:00 | 00:00:00 | |
| LZ4TU-5 | 2026-09-04 06:38:21 | 42.73494 | 21.98297 | 308° | 11km/h | 28504m | 7.5m/s | -45.8°C | 0.0% | 0hPa | 0V | 00:00:00 | 00:00:00 | 00:00:00 | |
| LZ4TU-5 | 2026-09-04 06:38:17 | 42.73496 | 21.98295 | 167° | 4km/h | 28477m | 4.5m/s | -46.0°C | 0.0% | 0hPa | 0V | 00:00:00 | 00:00:00 | 00:00:00 | |
| LZ4TU-5 | 2026-09-04 06:36:57 | 42.73620 | 21.98846 | 226° | 22km/h | 27959m | 6.0m/s | -45.4°C | 0.0% | 0hPa | 0V | 00:00:00 | 00:00:00 | 00:00:00 | |
| LZ4TU-5 | 2026-09-04 06:36:52 | 42.73645 | 21.98874 | 203° | 27km/h | 27928m | 6.3m/s | -45.4°C | 0.0% | 0hPa | 0V | 00:00:00 | 00:00:00 | 00:00:00 | |
| LZ4TU-5 | 2026-09-04 06:35:33 | 42.73851 | 21.99175 | 139° | 13km/h | 27427m | 7.3m/s | -47.3°C | 0.0% | 0hPa | 0V | 00:00:00 | 00:00:00 | 00:00:00 | |
| LZ4TU-5 | 2026-09-04 06:34:11 | 42.74133 | 21.99195 | 327° | 4km/h | 26895m | 6.2m/s | -47.2°C | 0.0% | 0hPa | 0V | 00:00:00 | 00:00:00 | 00:00:00 | |
| LZ4TU-5 | 2026-09-04 06:34:06 | 42.74139 | 21.99183 | 98° | 13km/h | 26865m | 6.6m/s | -47.4°C | 0.0% | 0hPa | 0V | 00:00:00 | 00:00:00 | 00:00:00 | |
| LZ4TU-5 | 2026-09-04 06:32:47 | 42.74095 | 21.99185 | 51° | 11km/h | 26354m | 8.1m/s | -48.8°C | 0.0% | 0hPa | 0V | 00:00:00 | 00:00:00 | 00:00:00 | |
| LZ4TU-5 | 2026-09-04 06:32:42 | 42.74064 | 21.99197 | 280° | 35km/h | 26322m | 5.9m/s | -49.0°C | 0.0% | 0hPa | 0V | 00:00:00 | 00:00:00 | 00:00:00 | |
| LZ4TU-5 | 2026-09-04 06:31:23 | 42.73870 | 21.99314 | 293° | 44km/h | 25847m | 6.7m/s | -49.5°C | 0.0% | 0hPa | 0V | 00:00:00 | 00:00:00 | 00:00:00 | |
| LZ4TU-5 | 2026-09-04 06:31:19 | 42.73862 | 21.99358 | 298° | 11km/h | 25827m | 6.6m/s | -49.7°C | 0.0% | 0hPa | 0V | 00:00:00 | 00:00:00 | 00:00:00 | |
| LZ4TU-5 | 2026-09-04 06:31:14 | 42.73857 | 21.99351 | 246° | 13km/h | 25798m | 4.3m/s | -49.8°C | 0% | 0hPa | 0V | 00:00:00 | 00:00:00 | 00:00:00 | |
| LZ4TU-5 | 2026-09-04 06:29:55 | 42.73715 | 21.99523 | 337° | 18km/h | 25322m | 6.5m/s | -49.3°C | 0.0% | 0hPa | 0V | 00:00:00 | 00:00:00 | 00:00:00 | |
| LZ4TU-5 | 2026-09-04 06:29:50 | 42.73675 | 21.99527 | 350° | 27km/h | 25289m | 6.0m/s | -49.2°C | 0.0% | 0hPa | 0V | 00:00:00 | 00:00:00 | 00:00:00 | |
| LZ4TU-5 | 2026-09-04 06:28:31 | 42.73575 | 21.99780 | 248° | 15km/h | 24802m | 5.9m/s | -50.0°C | 0.0% | 0hPa | 0V | 00:00:00 | 00:00:00 | 00:00:00 | |
| LZ4TU-5 | 2026-09-04 06:28:27 | 42.73598 | 21.99810 | 197° | 33km/h | 24772m | 6.4m/s | -50.1°C | 0.0% | 0hPa | 0V | 00:00:00 | 00:00:00 | 00:00:00 | |
| LZ4TU-5 | 2026-09-04 06:27:03 | 42.73826 | 21.99910 | 115° | 15km/h | 24258m | 7.4m/s | -51.2°C | 0.0% | 0hPa | 0V | 00:00:00 | 00:00:00 | 00:00:00 | |
| LZ4TU-5 | 2026-09-04 06:26:58 | 42.73835 | 21.99886 | 0° | 0km/h | 24229m | 7.7m/s | -51.5°C | 0% | 0hPa | 0V | 00:00:00 | 00:00:00 | 00:00:00 | |
| LZ4TU-5 | 2026-09-04 06:25:35 | 42.73858 | 21.99971 | 219° | 16km/h | 23737m | 5.6m/s | -51.0°C | 0.0% | 0hPa | 0V | 00:00:00 | 00:00:00 | 00:00:00 | |
| LZ4TU-5 | 2026-09-04 06:25:30 | 42.73863 | 21.99967 | 244° | 7km/h | 23707m | 4.9m/s | -51.0°C | 0.0% | 0hPa | 0V | 00:00:00 | 00:00:00 | 00:00:00 | |
| LZ4TU-5 | 2026-09-04 06:23:49 | 42.74004 | 21.99886 | 320° | 7km/h | 23115m | 5.5m/s | -53.8°C | 0.0% | 0hPa | 0V | 00:00:00 | 00:00:00 | 00:00:00 | |
| LZ4TU-5 | 2026-09-04 06:23:44 | 42.74011 | 21.99886 | 224° | 9km/h | 23085m | 4.2m/s | -53.7°C | 0.0% | 0hPa | 0V | 00:00:00 | 00:00:00 | 00:00:00 | |
| LZ4TU-5 | 2026-09-04 06:22:19 | 42.74088 | 22.00084 | 269° | 9km/h | 22576m | 4.3m/s | -53.0°C | 0.0% | 0hPa | 0V | 00:00:00 | 00:00:00 | 00:00:00 | |
| LZ4TU-5 | 2026-09-04 06:22:14 | 42.74093 | 22.00084 | 95° | 15km/h | 22545m | 6.7m/s | -53.1°C | 0.0% | 0hPa | 0V | 00:00:00 | 00:00:00 | 00:00:00 | |
| LZ4TU-5 | 2026-09-04 06:20:49 | 42.74230 | 22.00218 | 195° | 22km/h | 22058m | 5.5m/s | -54.6°C | 0.0% | 0hPa | 0V | 00:00:00 | 00:00:00 | 00:00:00 | |
| LZ4TU-5 | 2026-09-04 06:20:44 | 42.74238 | 22.00224 | 338° | 5km/h | 22027m | 6.4m/s | -54.4°C | 0% | 0hPa | 0V | 00:00:00 | 00:00:00 | 00:00:00 | |
| LZ4TU-5 | 2026-09-04 06:19:19 | 42.74399 | 22.00138 | 118° | 15km/h | 21532m | 7.0m/s | -54.0°C | 0.0% | 0hPa | 0V | 00:00:00 | 00:00:00 | 00:00:00 | |
| LZ4TU-5 | 2026-09-04 06:19:14 | 42.74399 | 22.00125 | 33° | 16km/h | 21501m | 6.1m/s | -54.1°C | 0.0% | 0hPa | 0V | 00:00:00 | 00:00:00 | 00:00:00 | |
| LZ4TU-5 | 2026-09-04 06:17:48 | 42.74514 | 22.00280 | 196° | 13km/h | 20985m | 4.7m/s | -53.7°C | 0.0% | 0hPa | 0V | 00:00:00 | 00:00:00 | 00:00:00 | |
| LZ4TU-5 | 2026-09-04 06:17:43 | 42.74516 | 22.00278 | 0° | 0km/h | 20956m | 6.7m/s | -53.8°C | 0.0% | 0hPa | 0V | 00:00:00 | 00:00:00 | 00:00:00 | |
| LZ4TU-5 | 2026-09-04 06:16:12 | 42.74700 | 22.00118 | 0° | 0km/h | 20426m | 7.1m/s | -54.1°C | 0.0% | 0hPa | 0V | 00:00:00 | 00:00:00 | 00:00:00 | |
| LZ4TU-5 | 2026-09-04 06:16:07 | 42.74700 | 22.00105 | 157° | 15km/h | 20398m | 4.3m/s | -54.3°C | 0.0% | 0hPa | 0V | 00:00:00 | 00:00:00 | 00:00:00 | |
| LZ4TU-5 | 2026-09-04 06:14:42 | 42.74868 | 21.99696 | 73° | 24km/h | 19877m | 5.2m/s | -56.6°C | 0.0% | 0hPa | 0V | 00:00:00 | 00:00:00 | 00:00:00 | |
| LZ4TU-5 | 2026-09-04 06:14:37 | 42.74865 | 21.99668 | 79° | 18km/h | 19846m | 6.3m/s | -56.7°C | 0.0% | 0hPa | 0V | 00:00:00 | 00:00:00 | 00:00:00 | |
| LZ4TU-5 | 2026-09-04 06:12:47 | 42.74844 | 21.99260 | 161° | 15km/h | 19215m | 4.7m/s | -57.1°C | 0.0% | 0hPa | 0V | 00:00:00 | 00:00:00 | 00:00:00 | |
| LZ4TU-5 | 2026-09-04 06:12:42 | 42.74860 | 21.99232 | 119° | 33km/h | 19189m | 6.5m/s | -57.3°C | 0.0% | 0hPa | 0V | 00:00:00 | 00:00:00 | 00:00:00 | |
| LZ4TU-5 | 2026-09-04 06:11:13 | 42.74627 | 21.98839 | 346° | 15km/h | 18701m | 8.2m/s | -55.7°C | 0.0% | 0hPa | 0V | 00:00:00 | 00:00:00 | 00:00:00 | |
| LZ4TU-5 | 2026-09-04 06:11:08 | 42.74607 | 21.98833 | 0° | 0km/h | 18669m | 8.8m/s | -56.1°C | 0.0% | 0hPa | 0V | 00:00:00 | 00:00:00 | 00:00:00 | |
| LZ4TU-5 | 2026-09-04 06:09:41 | 42.74819 | 21.98705 | 126° | 31km/h | 18144m | 5.7m/s | -55.7°C | 0.0% | 0hPa | 0V | 00:00:00 | 00:00:00 | 00:00:00 | |
| LZ4TU-5 | 2026-09-04 06:09:36 | 42.74848 | 21.98651 | 114° | 51km/h | 18118m | 5.2m/s | -56.1°C | 0.0% | 0hPa | 0V | 00:00:00 | 00:00:00 | 00:00:00 | |
| LZ4TU-5 | 2026-09-04 06:07:55 | 42.75125 | 21.97754 | 148° | 26km/h | 17607m | 3.6m/s | -58.8°C | 0.0% | 0hPa | 0V | 00:00:00 | 00:00:00 | 00:00:00 | |
| LZ4TU-5 | 2026-09-04 06:07:51 | 42.75134 | 21.97719 | 77° | 29km/h | 17587m | 5.3m/s | -58.7°C | 0% | 0hPa | 0V | 00:00:00 | 00:00:00 | 00:00:00 | |
| LZ4TU-5 | 2026-09-04 06:06:16 | 42.75160 | 21.97258 | 80° | 15km/h | 17051m | 4.7m/s | -56.7°C | 0.0% | 0hPa | 0V | 00:00:00 | 00:00:00 | 00:00:00 | |
| LZ4TU-5 | 2026-09-04 06:06:11 | 42.75162 | 21.97227 | 100° | 24km/h | 17024m | 5.3m/s | -56.7°C | 0.0% | 0hPa | 0V | 00:00:00 | 00:00:00 | 00:00:00 | |
| LZ4TU-5 | 2026-09-04 06:04:03 | 42.75495 | 21.95889 | 142° | 51km/h | 16328m | 4.0m/s | -57.3°C | 0.0% | 0hPa | 0V | 00:00:00 | 00:00:00 | 00:00:00 | |
| LZ4TU-5 | 2026-09-04 06:03:58 | 42.75542 | 21.95852 | 150° | 35km/h | 16303m | 4.7m/s | -57.2°C | 0.0% | 0hPa | 0V | 00:00:00 | 00:00:00 | 00:00:00 | |
| LZ4TU-5 | 2026-09-04 06:03:53 | 42.75587 | 21.95813 | 147° | 44km/h | 16278m | 4.4m/s | -57.0°C | 0.0% | 0hPa | 0V | 00:00:00 | 00:00:00 | 00:00:00 | |
| LZ4TU-5 | 2026-09-04 06:02:20 | 42.76213 | 21.94937 | 91° | 26km/h | 15739m | 5.9m/s | -56.8°C | 0.0% | 0hPa | 0V | 00:00:00 | 00:00:00 | 00:00:00 | |
| LZ4TU-5 | 2026-09-04 06:02:16 | 42.76209 | 21.94887 | 88° | 33km/h | 15719m | 2.9m/s | -56.7°C | 0.0% | 0hPa | 0V | 00:00:00 | 00:00:00 | 00:00:00 | |
| LZ4TU-5 | 2026-09-04 06:00:42 | 42.76672 | 21.94193 | 134° | 40km/h | 15202m | 4.9m/s | -54.8°C | 0.0% | 0hPa | 0V | 00:00:00 | 00:00:00 | 00:00:00 | |
| LZ4TU-5 | 2026-09-04 06:00:36 | 42.76713 | 21.94134 | 137° | 44km/h | 15175m | 4.7m/s | -54.6°C | 0.0% | 0hPa | 0V | 00:00:00 | 00:00:00 | 00:00:00 | |
| LZ4TU-5 | 2026-09-04 06:00:31 | 42.76757 | 21.94083 | 144° | 44km/h | 15149m | 4.6m/s | -54.5°C | 0.0% | 0hPa | 0V | 00:00:00 | 00:00:00 | 00:00:00 | |
| LZ4TU-5 | 2026-09-04 05:59:08 | 42.77576 | 21.93126 | 150° | 42km/h | 14720m | 4.8m/s | -54.0°C | 0.0% | 0hPa | 0V | 00:00:00 | 00:00:00 | 00:00:00 | |
| LZ4TU-5 | 2026-09-04 05:59:03 | 42.77622 | 21.93075 | 144° | 55km/h | 14693m | 4.8m/s | -53.8°C | 0.0% | 0hPa | 0V | 00:00:00 | 00:00:00 | 00:00:00 | |
| LZ4TU-5 | 2026-09-04 05:57:26 | 42.78621 | 21.91585 | 127° | 57km/h | 14200m | 4.1m/s | -54.1°C | 0.2% | 0hPa | 0V | 00:00:00 | 00:00:00 | 00:00:00 | |
| LZ4TU-5 | 2026-09-04 05:57:22 | 42.78654 | 21.91524 | 127° | 53km/h | 14180m | 4.2m/s | -54.1°C | 0% | 0hPa | 0V | 00:00:00 | 00:00:00 | 00:00:00 | |
| LZ4TU-5 | 2026-09-04 05:55:52 | 42.79190 | 21.90548 | 115° | 40km/h | 13698m | 5.4m/s | -51.7°C | 1.0% | 0hPa | 0V | 00:00:00 | 00:00:00 | 00:00:00 | |
| LZ4TU-5 | 2026-09-04 05:55:47 | 42.79205 | 21.90514 | 177° | 42km/h | 13664m | 9.1m/s | -51.4°C | 1.1% | 0hPa | 0V | 00:00:00 | 00:00:00 | 00:00:00 | |
| LZ4TU-5 | 2026-09-04 05:54:06 | 42.80811 | 21.89783 | 160° | 84km/h | 13048m | 4.5m/s | -53.4°C | 6.2% | 0hPa | 0V | 00:00:00 | 00:00:00 | 00:00:00 | |
| LZ4TU-5 | 2026-09-04 05:54:01 | 42.80911 | 21.89725 | 162° | 95km/h | 13026m | 3.8m/s | -53.4°C | 6.7% | 0hPa | 0V | 00:00:00 | 00:00:00 | 00:00:00 | |
| LZ4TU-5 | 2026-09-04 05:52:40 | 42.82673 | 21.89006 | 177° | 80km/h | 12617m | 5.9m/s | -55.5°C | 17.3% | 0hPa | 0V | 00:00:00 | 00:00:00 | 00:00:00 | |
| LZ4TU-5 | 2026-09-04 05:52:35 | 42.82803 | 21.88997 | 180° | 113km/h | 12583m | 6.2m/s | -55.5°C | 18.4% | 0hPa | 0V | 00:00:00 | 00:00:00 | 00:00:00 | |
| LZ4TU-5 | 2026-09-04 05:51:12 | 42.85486 | 21.88664 | 175° | 151km/h | 12098m | 5.4m/s | -57.6°C | 36.9% | 0hPa | 0V | 00:00:00 | 00:00:00 | 00:00:00 | |
| LZ4TU-5 | 2026-09-04 05:51:08 | 42.85636 | 21.88640 | 175° | 153km/h | 12076m | 5.1m/s | -57.5°C | 37.1% | 0hPa | 0V | 00:00:00 | 00:00:00 | 00:00:00 | |
| LZ4TU-5 | 2026-09-04 05:49:49 | 42.88476 | 21.88305 | 179° | 117km/h | 11631m | 5.4m/s | -55.2°C | 41.3% | 0hPa | 0V | 00:00:00 | 00:00:00 | 00:00:00 | |
| LZ4TU-5 | 2026-09-04 05:49:44 | 42.88660 | 21.88307 | 183° | 164km/h | 11595m | 4.1m/s | -55.2°C | 41.8% | 0hPa | 0V | 00:00:00 | 00:00:00 | 00:00:00 | |
| LZ4TU-5 | 2026-09-04 05:48:10 | 42.92382 | 21.89622 | 193° | 168km/h | 11037m | 6.4m/s | -52.1°C | 46.4% | 0hPa | 0V | 00:00:00 | 00:00:00 | 00:00:00 | |
| LZ4TU-5 | 2026-09-04 05:48:05 | 42.92590 | 21.89687 | 196° | 181km/h | 11014m | 5.1m/s | -51.9°C | 46.5% | 0hPa | 0V | 00:00:00 | 00:00:00 | 00:00:00 | |
| LZ4TU-5 | 2026-09-04 05:46:37 | 42.96399 | 21.91020 | 193° | 201km/h | 10508m | 7.8m/s | -47.6°C | 40.1% | 0hPa | 0V | 00:00:00 | 00:00:00 | 00:00:00 | |
| LZ4TU-5 | 2026-09-04 05:46:33 | 42.96587 | 21.91112 | 203° | 177km/h | 10477m | 4.6m/s | -47.2°C | 0% | 0hPa | 0V | 00:00:00 | 00:00:00 | 00:00:00 | |
| LZ4TU-5 | 2026-09-04 05:45:13 | 43.00041 | 21.91931 | 187° | 168km/h | 10015m | 3.8m/s | -43.2°C | 39.6% | 0hPa | 0V | 00:00:00 | 00:00:00 | 00:00:00 | |
| LZ4TU-5 | 2026-09-04 05:45:08 | 43.00243 | 21.91973 | 191° | 164km/h | 9989m | 5.2m/s | -43.0°C | 39.7% | 0hPa | 0V | 00:00:00 | 00:00:00 | 00:00:00 | |
| LZ4TU-5 | 2026-09-04 05:43:39 | 43.03721 | 21.92569 | 184° | 150km/h | 9502m | 6.4m/s | -39.3°C | 51.5% | 0hPa | 0V | 00:00:00 | 00:00:00 | 00:00:00 | |
| LZ4TU-5 | 2026-09-04 05:43:35 | 43.03877 | 21.92582 | 184° | 151km/h | 9481m | 4.4m/s | -39.1°C | 51.5% | 0hPa | 0V | 00:00:00 | 00:00:00 | 00:00:00 | |
| LZ4TU-5 | 2026-09-04 05:42:07 | 43.07130 | 21.92862 | 184° | 150km/h | 9024m | 5.6m/s | -35.5°C | 48.2% | 0hPa | 0V | 00:00:00 | 00:00:00 | 00:00:00 | |
| LZ4TU-5 | 2026-09-04 05:42:02 | 43.07316 | 21.92871 | 184° | 142km/h | 8997m | 6.0m/s | -35.3°C | 47.8% | 0hPa | 0V | 00:00:00 | 00:00:00 | 00:00:00 | |
| LZ4TU-5 | 2026-09-04 05:40:14 | 43.10818 | 21.93075 | 186° | 133km/h | 8422m | 5.9m/s | -30.8°C | 39.7% | 0hPa | 0V | 00:00:00 | 00:00:00 | 00:00:00 | |
| LZ4TU-5 | 2026-09-04 05:40:10 | 43.10989 | 21.93081 | 178° | 137km/h | 8398m | 5.7m/s | -30.7°C | 39.8% | 0hPa | 0V | 00:00:00 | 00:00:00 | 00:00:00 | |
| LZ4TU-5 | 2026-09-04 05:38:23 | 43.14263 | 21.93015 | 184° | 135km/h | 7853m | 5.9m/s | -26.2°C | 39.6% | 0hPa | 0V | 00:00:00 | 00:00:00 | 00:00:00 | |
| LZ4TU-5 | 2026-09-04 05:38:18 | 43.14432 | 21.93018 | 185° | 122km/h | 7826m | 6.8m/s | -26.1°C | 0% | 0hPa | 0V | 00:00:00 | 00:00:00 | 00:00:00 | |
| LZ4TU-5 | 2026-09-04 05:36:57 | 43.16991 | 21.92933 | 182° | 126km/h | 7437m | 5.3m/s | -23.1°C | 33.8% | 0hPa | 0V | 00:00:00 | 00:00:00 | 00:00:00 | |
| LZ4TU-5 | 2026-09-04 05:36:53 | 43.17125 | 21.92919 | 172° | 141km/h | 7418m | 2.9m/s | -23.0°C | 29.7% | 0hPa | 0V | 00:00:00 | 00:00:00 | 00:00:00 | |
| LZ4TU-5 | 2026-09-04 05:35:39 | 43.19089 | 21.92707 | 168° | 108km/h | 7018m | 6.9m/s | -21.5°C | 5.4% | 0hPa | 0V | 00:00:00 | 00:00:00 | 00:00:00 | |
| LZ4TU-5 | 2026-09-04 05:35:34 | 43.19227 | 21.92704 | 185° | 88km/h | 6993m | 6.7m/s | -21.3°C | 5.5% | 0hPa | 0V | 00:00:00 | 00:00:00 | 00:00:00 | |
| LZ4TU-5 | 2026-09-04 05:34:22 | 43.20864 | 21.92568 | 167° | 78km/h | 6587m | 9.0m/s | -18.5°C | 6.9% | 0hPa | 0V | 00:00:00 | 00:00:00 | 00:00:00 | |
| LZ4TU-5 | 2026-09-04 05:34:17 | 43.20957 | 21.92534 | 177° | 86km/h | 6554m | 7.0m/s | -18.2°C | 7.2% | 0hPa | 0V | 00:00:00 | 00:00:00 | 00:00:00 | |
| LZ4TU-5 | 2026-09-04 05:32:59 | 43.22441 | 21.92299 | 164° | 49km/h | 6081m | 5.8m/s | -16.6°C | 38.3% | 0hPa | 0V | 00:00:00 | 00:00:00 | 00:00:00 | |
| LZ4TU-5 | 2026-09-04 05:31:51 | 43.23406 | 21.92062 | 165° | 40km/h | 5698m | 6.1m/s | -13.8°C | 45.9% | 0hPa | 0V | 00:00:00 | 00:00:00 | 00:00:00 | |
| LZ4TU-5 | 2026-09-04 05:31:46 | 43.23469 | 21.92032 | 171° | 71km/h | 5670m | 3.8m/s | -13.6°C | 0% | 0hPa | 0V | 00:00:00 | 00:00:00 | 00:00:00 | |
| LZ4TU-5 | 2026-09-04 05:30:37 | 43.24371 | 21.92029 | 193° | 35km/h | 5283m | 3.5m/s | -10.7°C | 56.0% | 0hPa | 0V | 00:00:00 | 00:00:00 | 00:00:00 | |
| LZ4TU-5 | 2026-09-04 05:30:33 | 43.24418 | 21.92019 | 168° | 62km/h | 5260m | 6.7m/s | -10.6°C | 55.8% | 0hPa | 0V | 00:00:00 | 00:00:00 | 00:00:00 | |
| LZ4TU-5 | 2026-09-04 05:29:16 | 43.25375 | 21.91960 | 199° | 53km/h | 4841m | 5.3m/s | -7.9°C | 54.5% | 0hPa | 0V | 00:00:00 | 00:00:00 | 00:00:00 | |
| LZ4TU-5 | 2026-09-04 05:29:11 | 43.25447 | 21.91949 | 149° | 53km/h | 4812m | 5.8m/s | -7.7°C | 52.1% | 0hPa | 0V | 00:00:00 | 00:00:00 | 00:00:00 | |
| LZ4TU-5 | 2026-09-04 05:29:06 | 43.25497 | 21.91918 | 183° | 49km/h | 4785m | 6.6m/s | -7.5°C | 49.6% | 0hPa | 0V | 00:00:00 | 00:00:00 | 00:00:00 | |
| LZ4TU-5 | 2026-09-04 05:28:04 | 43.26191 | 21.91626 | 163° | 66km/h | 4428m | 5.3m/s | -4.9°C | 16.0% | 0hPa | 0V | 00:00:00 | 00:00:00 | 00:00:00 | |
| LZ4TU-5 | 2026-09-04 05:27:59 | 43.26243 | 21.91589 | 170° | 31km/h | 4401m | 5.1m/s | -4.7°C | 16.4% | 0hPa | 0V | 00:00:00 | 00:00:00 | 00:00:00 | |
| LZ4TU-5 | 2026-09-04 05:26:58 | 43.26960 | 21.91360 | 139° | 33km/h | 4112m | 4.9m/s | -4.5°C | 48.4% | 0hPa | 0V | 00:00:00 | 00:00:00 | 00:00:00 | |
| LZ4TU-5 | 2026-09-04 05:26:53 | 43.27019 | 21.91317 | 160° | 53km/h | 4090m | 4.2m/s | -4.3°C | 48.4% | 0hPa | 0V | 00:00:00 | 00:00:00 | 00:00:00 | |
| LZ4TU-5 | 2026-09-04 05:25:52 | 43.27648 | 21.91078 | 181° | 42km/h | 3792m | 5.8m/s | -1.9°C | 50.7% | 0hPa | 0V | 00:00:00 | 00:00:00 | 00:00:00 | |
| LZ4TU-5 | 2026-09-04 05:25:47 | 43.27696 | 21.91096 | 186° | 29km/h | 3773m | 4.1m/s | -1.7°C | 50.2% | 0hPa | 0V | 00:00:00 | 00:00:00 | 00:00:00 | |
| LZ4TU-5 | 2026-09-04 05:24:44 | 43.28410 | 21.90903 | 175° | 42km/h | 3449m | 4.9m/s | -0.4°C | 66.1% | 0hPa | 0V | 00:00:00 | 00:00:00 | 00:00:00 |